Weather at Väster Private Airstrip

Public forecast

Using degrees Celsius for public forecast. Weather courtesy of forecast.io.

Closest aviation weather report (METAR) to Väster Private Airstrip

Closest report is Copenhagen Kastrup Airport, 10.5 nm (19.4 km) WNW.

2024/05/18 22:20 (retrieved 40 minutes ago)

EKCH 182220Z AUTO 05007KT 9999 NCD 14/06 Q1013 NOSIG

Closest aviation forecast (TAF) to Väster Private Airstrip

Closest forecast is Copenhagen Kastrup Airport, 10.5 nm (19.4 km) WNW.

2024/05/18 18:31 (retrieved 4 hours ago)

TAF EKCH 181702Z 1818/1918 07010KT CAVOK PROB40 1906/1910 SCT050CB BECMG 1909/1911 19008KT TEMPO 1910/1917 SCT050CB